createdAt,value
2018-06-10T00:00:59.488Z,16.30
2018-06-10T00:03:28.044Z,16.30
2018-06-10T00:05:56.379Z,16.50
2018-06-10T00:08:24.777Z,16.50
2018-06-10T00:10:53.186Z,16.60
2018-06-10T00:13:21.570Z,16.60
2018-06-10T00:15:50.596Z,16.70
2018-06-10T00:18:18.937Z,16.80
2018-06-10T00:20:47.320Z,16.80
2018-06-10T00:23:15.635Z,16.80
2018-06-10T00:25:44.038Z,16.90
2018-06-10T00:28:12.475Z,16.80
2018-06-10T00:30:40.813Z,16.90
2018-06-10T00:33:09.145Z,17.00
2018-06-10T00:35:37.458Z,17.10
2018-06-10T00:38:05.904Z,17.10
2018-06-10T00:40:34.291Z,17.20
2018-06-10T00:43:04.201Z,17.20
2018-06-10T00:45:32.627Z,17.10
2018-06-10T00:48:02.320Z,17.10
2018-06-10T00:50:31.528Z,17.20
2018-06-10T00:52:59.883Z,17.10
2018-06-10T00:55:28.225Z,17.20
2018-06-10T00:57:57.164Z,17.20
2018-06-10T01:00:25.499Z,17.30
2018-06-10T01:02:53.821Z,17.20
2018-06-10T01:05:22.159Z,17.20
2018-06-10T01:07:50.488Z,17.20
2018-06-10T01:10:18.852Z,17.20
2018-06-10T01:12:47.187Z,17.20
2018-06-10T01:15:15.525Z,17.30
2018-06-10T01:17:43.893Z,17.30
2018-06-10T01:20:12.185Z,17.40
2018-06-10T01:22:41.096Z,17.30
2018-06-10T01:25:09.463Z,17.10
2018-06-10T01:27:37.801Z,17.00
2018-06-10T01:30:06.140Z,17.00
2018-06-10T01:32:34.449Z,17.00
2018-06-10T01:35:02.836Z,16.80
2018-06-10T01:37:31.200Z,16.70
2018-06-10T01:39:59.903Z,16.70
2018-06-10T01:42:28.244Z,16.70
2018-06-10T01:44:56.624Z,16.70
2018-06-10T01:47:24.981Z,16.60
2018-06-10T01:49:53.298Z,16.60
2018-06-10T01:52:21.645Z,16.60
2018-06-10T01:54:49.971Z,16.70
2018-06-10T01:57:18.376Z,16.70
2018-06-10T01:59:46.720Z,16.70
2018-06-10T02:02:15.071Z,16.80
2018-06-10T02:04:44.472Z,16.80
2018-06-10T02:07:12.836Z,16.80
2018-06-10T02:09:41.930Z,16.90
2018-06-10T02:12:10.279Z,16.90
2018-06-10T02:14:38.691Z,16.90
2018-06-10T02:17:07.088Z,17.00
2018-06-10T02:19:36.035Z,17.00
2018-06-10T02:22:04.385Z,17.00
2018-06-10T02:24:33.405Z,17.00
2018-06-10T02:27:01.757Z,17.10
2018-06-10T02:29:30.124Z,17.00
2018-06-10T02:31:58.462Z,17.00
2018-06-10T02:34:26.813Z,17.00
2018-06-10T02:36:55.132Z,17.00
2018-06-10T02:39:24.146Z,17.00
2018-06-10T02:41:52.521Z,17.00
2018-06-10T02:44:20.879Z,17.00
2018-06-10T02:46:49.221Z,17.00
2018-06-10T02:49:17.585Z,17.10
2018-06-10T02:51:46.269Z,17.10
2018-06-10T02:54:14.611Z,17.00
2018-06-10T02:56:42.981Z,15.80
2018-06-10T02:59:11.409Z,17.00
2018-06-10T03:01:39.801Z,17.10
2018-06-10T03:04:08.185Z,17.00
2018-06-10T03:06:36.538Z,16.80
2018-06-10T03:09:07.296Z,16.60
2018-06-10T03:11:35.651Z,16.50
2018-06-10T03:14:03.982Z,16.50
2018-06-10T03:16:32.330Z,16.60
2018-06-10T03:21:28.692Z,16.50
2018-06-10T03:23:57.015Z,16.40
2018-06-10T03:26:25.996Z,16.30
2018-06-10T03:28:54.309Z,16.30
2018-06-10T03:31:22.695Z,16.20
2018-06-10T03:33:51.047Z,16.20
2018-06-10T03:36:19.439Z,16.20
2018-06-10T03:38:48.178Z,16.20
2018-06-10T03:41:16.637Z,16.20
2018-06-10T03:43:45.034Z,16.20
2018-06-10T03:46:13.362Z,16.10
2018-06-10T03:48:41.722Z,16.00
2018-06-10T03:51:10.962Z,16.00
2018-06-10T03:53:39.288Z,16.00
2018-06-10T03:56:08.628Z,16.00
2018-06-10T03:58:36.972Z,16.00
2018-06-10T04:01:05.301Z,16.00
2018-06-10T04:03:33.646Z,16.00
2018-06-10T04:06:01.946Z,16.00
2018-06-10T04:08:30.263Z,16.00
2018-06-10T04:10:58.561Z,16.00
2018-06-10T04:13:26.906Z,16.00
2018-06-10T04:15:55.221Z,16.00
2018-06-10T04:18:23.550Z,16.00
2018-06-10T04:20:51.889Z,16.00
2018-06-10T04:23:20.195Z,16.10
2018-06-10T04:25:48.533Z,16.10
2018-06-10T04:28:16.842Z,16.20
2018-06-10T04:30:45.165Z,16.20
2018-06-10T04:33:13.478Z,16.30
2018-06-10T04:35:41.790Z,16.40
2018-06-10T04:38:10.141Z,16.50
2018-06-10T04:40:38.486Z,16.60
2018-06-10T04:43:06.910Z,16.80
2018-06-10T04:45:35.274Z,16.80
2018-06-10T04:48:03.600Z,16.80
2018-06-10T04:50:31.925Z,16.80
2018-06-10T04:53:00.307Z,16.70
2018-06-10T04:55:28.569Z,16.80
2018-06-10T04:57:56.955Z,16.90
2018-06-10T05:00:25.262Z,16.90
2018-06-10T05:05:21.704Z,17.10
2018-06-10T05:07:50.033Z,17.00
2018-06-10T05:10:18.397Z,17.00
2018-06-10T05:12:46.738Z,17.00
2018-06-10T05:15:15.085Z,16.90
2018-06-10T05:17:43.418Z,16.90
2018-06-10T05:20:11.782Z,16.80
2018-06-10T05:22:40.152Z,16.90
2018-06-10T05:27:36.608Z,16.90
2018-06-10T05:30:04.985Z,16.90
2018-06-10T05:32:33.610Z,17.00
2018-06-10T05:35:01.966Z,17.10
2018-06-10T05:37:30.303Z,17.30
2018-06-10T05:39:58.638Z,17.70
2018-06-10T05:42:26.942Z,18.00
2018-06-10T05:44:55.258Z,18.30
2018-06-10T05:49:51.710Z,18.90
2018-06-10T05:52:20.034Z,19.00
2018-06-10T05:54:48.371Z,19.40
2018-06-10T05:59:44.766Z,19.60
2018-06-10T06:02:13.327Z,19.80
2018-06-10T06:04:41.704Z,19.80
2018-06-10T06:07:10.085Z,20.10
2018-06-10T06:09:38.470Z,20.70
2018-06-10T06:12:06.805Z,20.90
2018-06-10T06:14:35.864Z,21.10
2018-06-10T06:17:04.522Z,21.10
2018-06-10T06:19:32.835Z,21.40
2018-06-10T06:22:01.138Z,21.20
2018-06-10T06:24:29.514Z,20.90
2018-06-10T06:26:59.209Z,20.80
2018-06-10T06:29:27.507Z,21.00
2018-06-10T06:31:55.903Z,21.40
2018-06-10T06:34:24.256Z,21.40
2018-06-10T06:36:52.604Z,21.80
2018-06-10T06:39:20.975Z,22.10
2018-06-10T06:41:49.289Z,22.00
2018-06-10T06:44:17.657Z,22.40
2018-06-10T06:46:45.998Z,22.70
2018-06-10T06:49:14.972Z,22.70
2018-06-10T06:51:43.459Z,23.00
2018-06-10T06:54:11.848Z,22.90
2018-06-10T06:56:40.231Z,22.60
2018-06-10T06:59:08.611Z,22.40
2018-06-10T07:01:36.988Z,22.20
2018-06-10T07:04:05.378Z,22.30
2018-06-10T07:06:33.703Z,22.70
2018-06-10T07:09:02.169Z,23.10
2018-06-10T07:11:30.464Z,23.30
2018-06-10T07:13:58.854Z,24.10
2018-06-10T07:16:27.240Z,24.10
2018-06-10T07:18:55.576Z,24.30
2018-06-10T07:21:24.147Z,24.50
2018-06-10T07:23:52.457Z,24.70
2018-06-10T07:26:20.783Z,24.70
2018-06-10T07:28:49.115Z,24.60
2018-06-10T07:31:17.466Z,24.70
2018-06-10T07:33:45.871Z,25.30
2018-06-10T07:36:14.232Z,25.90
2018-06-10T07:38:42.618Z,26.50
2018-06-10T07:41:10.950Z,26.90
2018-06-10T07:43:39.294Z,27.10
2018-06-10T07:46:07.667Z,26.80
2018-06-10T07:48:36.037Z,26.30
2018-06-10T07:51:04.390Z,26.50
2018-06-10T07:53:32.720Z,26.70
2018-06-10T07:56:01.040Z,26.90
2018-06-10T07:58:29.381Z,27.30
2018-06-10T08:00:57.822Z,27.40
2018-06-10T08:03:26.199Z,27.30
2018-06-10T08:05:54.524Z,27.30
2018-06-10T08:08:22.911Z,27.80
2018-06-10T08:10:51.306Z,28.10
2018-06-10T08:13:19.667Z,28.10
2018-06-10T08:15:48.110Z,27.70
2018-06-10T08:18:16.461Z,27.50
2018-06-10T08:20:44.771Z,27.80
2018-06-10T08:23:13.170Z,27.70
2018-06-10T08:25:42.198Z,27.70
2018-06-10T08:28:10.611Z,27.30
2018-06-10T08:30:38.994Z,27.60
2018-06-10T08:33:07.311Z,27.80
2018-06-10T08:35:35.680Z,28.10
2018-06-10T08:38:04.058Z,28.20
2018-06-10T08:40:32.411Z,28.30
2018-06-10T08:43:00.726Z,28.00
2018-06-10T08:45:29.110Z,27.60
2018-06-10T08:47:57.574Z,27.50
2018-06-10T08:50:26.055Z,27.20
2018-06-10T08:52:54.554Z,26.70
2018-06-10T08:55:22.924Z,26.30
2018-06-10T08:57:51.250Z,26.20
2018-06-10T09:00:19.678Z,26.10
2018-06-10T09:02:48.148Z,25.90
2018-06-10T09:05:16.550Z,25.80
2018-06-10T09:07:44.916Z,25.50
2018-06-10T09:10:13.287Z,25.10
2018-06-10T09:12:41.628Z,24.70
2018-06-10T09:15:09.989Z,24.40
2018-06-10T09:17:38.337Z,24.30
2018-06-10T09:20:06.780Z,24.30
2018-06-10T09:22:35.141Z,25.30
2018-06-10T09:25:03.543Z,25.70
2018-06-10T09:27:31.894Z,26.30
2018-06-10T09:30:00.283Z,26.60
2018-06-10T09:32:28.701Z,27.10
2018-06-10T09:34:57.053Z,27.20
2018-06-10T09:37:25.490Z,26.30
2018-06-10T09:39:53.944Z,25.50
2018-06-10T09:42:23.115Z,25.40
2018-06-10T09:44:51.529Z,25.40
2018-06-10T09:47:19.922Z,25.30
2018-06-10T09:49:48.366Z,25.30
2018-06-10T09:52:16.768Z,25.30
2018-06-10T09:54:45.154Z,25.50
2018-06-10T09:57:13.534Z,26.20
2018-06-10T09:59:41.879Z,26.60
2018-06-10T10:02:10.342Z,26.40
2018-06-10T10:04:38.702Z,25.50
2018-06-10T10:07:07.111Z,25.40
2018-06-10T10:09:35.584Z,25.90
2018-06-10T10:12:04.005Z,26.70
2018-06-10T10:14:32.449Z,27.00
2018-06-10T10:17:01.434Z,27.10
2018-06-10T10:19:29.852Z,27.30
2018-06-10T10:21:58.183Z,27.10
2018-06-10T10:29:22.715Z,26.80
2018-06-10T10:31:51.148Z,27.00
2018-06-10T10:34:19.523Z,27.30
2018-06-10T10:36:47.899Z,27.40
2018-06-10T10:39:16.244Z,27.30
2018-06-10T10:41:44.579Z,27.00
2018-06-10T10:44:12.955Z,26.40
2018-06-10T10:46:41.300Z,26.40
2018-06-10T10:49:16.390Z,26.90
2018-06-10T10:51:44.729Z,27.40
2018-06-10T10:54:13.304Z,27.20
2018-06-10T10:56:41.700Z,27.20
2018-06-10T10:59:10.057Z,27.10
2018-06-10T11:01:39.042Z,27.70
2018-06-10T11:04:07.354Z,28.10
2018-06-10T11:06:36.165Z,28.30
2018-06-10T11:11:34.116Z,28.50
2018-06-10T11:14:02.538Z,28.00
2018-06-10T11:16:30.888Z,27.30
2018-06-10T11:18:59.220Z,26.90
2018-06-10T11:21:27.606Z,26.80
2018-06-10T11:23:55.960Z,26.70
2018-06-10T11:26:24.337Z,27.00
2018-06-10T11:28:52.723Z,27.40
2018-06-10T11:31:21.096Z,27.50
2018-06-10T11:33:49.479Z,27.40
2018-06-10T11:36:17.869Z,27.30
2018-06-10T11:38:46.213Z,26.90
2018-06-10T11:41:15.586Z,26.70
2018-06-10T11:43:43.994Z,26.70
2018-06-10T11:48:40.773Z,28.20
2018-06-10T11:51:09.385Z,28.40
2018-06-10T11:53:37.769Z,28.80
2018-06-10T11:56:06.152Z,29.50
2018-06-10T11:58:34.503Z,29.30
2018-06-10T12:01:02.831Z,28.60
2018-06-10T12:03:31.208Z,28.70
2018-06-10T12:05:59.545Z,29.10
2018-06-10T12:08:27.911Z,29.10
2018-06-10T12:10:56.278Z,29.80
2018-06-10T12:13:24.594Z,30.20
2018-06-10T12:15:52.947Z,30.50
2018-06-10T12:18:21.298Z,30.80
2018-06-10T12:20:49.675Z,30.70
2018-06-10T12:23:18.076Z,30.00
2018-06-10T12:25:46.380Z,30.30
2018-06-10T12:28:14.775Z,30.60
2018-06-10T12:30:43.118Z,31.00
2018-06-10T12:33:11.511Z,31.90
2018-06-10T12:35:39.877Z,32.50
2018-06-10T12:38:08.231Z,32.20
2018-06-10T12:40:36.620Z,31.80
2018-06-10T12:43:04.966Z,31.40
2018-06-10T12:48:23.287Z,31.30
2018-06-10T12:50:51.632Z,32.20
2018-06-10T12:53:19.980Z,32.30
2018-06-10T12:55:48.390Z,32.00
2018-06-10T12:58:16.723Z,32.40
2018-06-10T13:00:45.878Z,32.50
2018-06-10T13:03:14.219Z,32.60
2018-06-10T13:05:42.608Z,32.90
2018-06-10T13:08:10.941Z,33.10
2018-06-10T13:10:39.251Z,33.10
2018-06-10T13:13:07.611Z,33.10
2018-06-10T13:15:35.988Z,32.30
2018-06-10T13:18:04.825Z,31.80
2018-06-10T13:20:33.210Z,31.70
2018-06-10T13:23:01.525Z,31.70
2018-06-10T13:25:29.831Z,31.90
2018-06-10T13:27:58.213Z,32.00
2018-06-10T13:32:54.643Z,32.20
2018-06-10T13:35:23.027Z,32.40
2018-06-10T13:37:51.371Z,33.20
2018-06-10T13:40:19.719Z,33.80
2018-06-10T13:42:48.118Z,33.90
2018-06-10T13:45:16.453Z,34.20
2018-06-10T13:47:44.848Z,34.40
2018-06-10T13:50:13.250Z,33.70
2018-06-10T13:52:41.589Z,32.80
2018-06-10T13:55:09.915Z,31.80
2018-06-10T13:57:38.253Z,31.90
2018-06-10T14:00:06.617Z,32.20
2018-06-10T14:02:34.975Z,31.70
2018-06-10T14:05:03.377Z,30.50
2018-06-10T14:09:59.858Z,29.80
2018-06-10T14:12:28.318Z,29.30
2018-06-10T14:14:56.608Z,28.60
2018-06-10T14:17:24.928Z,28.00
2018-06-10T14:19:53.662Z,27.80
2018-06-10T14:22:22.092Z,27.60
2018-06-10T14:24:50.409Z,27.50
2018-06-10T14:27:18.776Z,27.60
2018-06-10T14:29:48.236Z,27.80
2018-06-10T14:32:16.659Z,27.90
2018-06-10T14:34:45.051Z,28.00
2018-06-10T14:37:13.997Z,27.60
2018-06-10T14:39:42.371Z,27.60
2018-06-10T14:42:11.206Z,27.50
2018-06-10T14:44:39.550Z,27.40
2018-06-10T14:47:07.949Z,27.50
2018-06-10T14:49:36.396Z,27.30
2018-06-10T14:52:04.750Z,27.30
2018-06-10T14:54:33.149Z,27.20
2018-06-10T14:57:01.912Z,27.30
2018-06-10T14:59:30.347Z,27.40
2018-06-10T15:01:58.720Z,27.30
2018-06-10T15:04:27.129Z,27.20
2018-06-10T15:06:55.519Z,27.10
2018-06-10T15:09:23.963Z,27.00
2018-06-10T15:11:52.342Z,26.90
2018-06-10T15:14:20.707Z,26.60
2018-06-10T15:16:49.080Z,26.40
2018-06-10T15:19:17.431Z,26.40
2018-06-10T15:21:45.983Z,26.40
2018-06-10T15:24:14.360Z,26.40
2018-06-10T15:26:42.868Z,26.30
2018-06-10T15:29:11.251Z,26.10
2018-06-10T15:31:39.656Z,25.80
2018-06-10T15:34:08.048Z,25.80
2018-06-10T15:36:36.384Z,25.90
2018-06-10T15:39:07.181Z,25.90
2018-06-10T15:41:35.544Z,26.00
2018-06-10T15:44:03.893Z,25.90
2018-06-10T15:46:32.290Z,25.70
2018-06-10T15:49:00.633Z,25.60
2018-06-10T15:51:28.971Z,25.50
2018-06-10T15:53:57.299Z,25.50
2018-06-10T15:56:25.637Z,25.50
2018-06-10T15:58:54.007Z,25.60
2018-06-10T16:03:50.424Z,25.50
2018-06-10T16:06:18.801Z,25.30
2018-06-10T16:08:47.146Z,25.20
2018-06-10T16:11:15.600Z,25.20
2018-06-10T16:13:43.986Z,25.10
2018-06-10T16:16:12.334Z,25.00
2018-06-10T16:18:40.678Z,25.00
2018-06-10T16:21:09.054Z,24.90
2018-06-10T16:23:37.438Z,24.90
2018-06-10T16:26:05.894Z,24.80
2018-06-10T16:28:34.447Z,24.70
2018-06-10T16:31:02.802Z,24.80
2018-06-10T16:33:31.213Z,24.80
2018-06-10T16:35:59.679Z,24.70
2018-06-10T16:38:28.063Z,24.70
2018-06-10T16:40:56.435Z,24.70
2018-06-10T16:43:24.780Z,24.40
2018-06-10T16:45:53.176Z,24.30
2018-06-10T16:48:21.648Z,24.20
2018-06-10T16:50:50.032Z,24.00
2018-06-10T16:53:18.376Z,24.10
2018-06-10T16:55:46.772Z,24.20
2018-06-10T16:58:15.172Z,24.10
2018-06-10T17:00:53.728Z,23.90
2018-06-10T17:03:22.277Z,23.90
2018-06-10T17:05:50.806Z,23.90
2018-06-10T17:08:19.196Z,23.90
2018-06-10T17:10:48.008Z,23.70
2018-06-10T17:13:16.400Z,24.00
2018-06-10T17:15:44.800Z,23.80
2018-06-10T17:18:13.880Z,23.60
2018-06-10T17:20:42.260Z,23.40
2018-06-10T17:23:10.700Z,23.10
2018-06-10T17:25:39.077Z,23.30
2018-06-10T17:28:07.452Z,23.30
2018-06-10T17:30:35.824Z,23.40
2018-06-10T17:33:04.240Z,23.70
2018-06-10T17:35:32.677Z,23.90
2018-06-10T17:38:01.149Z,23.90
2018-06-10T17:40:29.481Z,24.00
2018-06-10T17:42:58.466Z,24.10
2018-06-10T17:45:26.989Z,23.90
2018-06-10T17:47:55.378Z,24.00
2018-06-10T17:50:23.768Z,23.60
2018-06-10T17:55:20.198Z,23.00
2018-06-10T17:57:48.569Z,23.00
2018-06-10T18:00:16.945Z,23.00
2018-06-10T18:02:45.315Z,22.90
2018-06-10T18:05:13.677Z,22.90
2018-06-10T18:07:42.046Z,22.90
2018-06-10T18:10:10.654Z,22.70
2018-06-10T18:12:39.097Z,22.50
2018-06-10T18:15:07.554Z,22.50
2018-06-10T18:17:36.509Z,22.20
2018-06-10T18:20:04.902Z,22.10
2018-06-10T18:22:33.267Z,22.10
2018-06-10T18:25:01.666Z,22.10
2018-06-10T18:27:30.080Z,22.00
2018-06-10T18:29:58.460Z,21.70
2018-06-10T18:32:26.887Z,21.70
2018-06-10T18:34:55.299Z,21.60
2018-06-10T18:37:23.705Z,21.40
2018-06-10T18:39:52.079Z,21.40
2018-06-10T18:42:20.487Z,21.30
2018-06-10T18:44:48.877Z,21.20
2018-06-10T18:47:17.253Z,21.10
2018-06-10T18:49:45.636Z,21.20
2018-06-10T18:52:14.016Z,21.20
2018-06-10T18:54:42.511Z,21.20
2018-06-10T18:57:10.910Z,21.10
2018-06-10T18:59:39.310Z,21.10
2018-06-10T19:02:07.699Z,21.10
2018-06-10T19:04:36.069Z,21.10
2018-06-10T19:07:06.800Z,21.00
2018-06-10T19:09:35.308Z,21.00
2018-06-10T19:12:03.692Z,21.00
2018-06-10T19:14:32.052Z,21.00
2018-06-10T19:17:00.419Z,21.00
2018-06-10T19:19:28.877Z,21.00
2018-06-10T19:21:57.287Z,21.00
2018-06-10T19:24:25.709Z,20.90
2018-06-10T19:26:54.096Z,20.80
2018-06-10T19:29:22.540Z,20.70
2018-06-10T19:31:50.890Z,20.80
2018-06-10T19:34:19.289Z,20.70
2018-06-10T19:36:47.657Z,20.60
2018-06-10T19:39:16.027Z,20.60
2018-06-10T19:41:44.467Z,20.50
2018-06-10T19:44:12.824Z,20.70
2018-06-10T19:46:41.259Z,20.70
2018-06-10T19:49:09.677Z,20.60
2018-06-10T19:51:38.049Z,20.50
2018-06-10T19:54:06.463Z,20.70
2018-06-10T19:56:34.909Z,20.70
2018-06-10T19:59:03.350Z,20.80
2018-06-10T20:01:31.704Z,20.80
2018-06-10T20:04:00.145Z,20.80
2018-06-10T20:06:28.551Z,20.70
2018-06-10T20:08:56.933Z,20.60
2018-06-10T20:11:25.316Z,20.50
2018-06-10T20:13:53.661Z,20.50
2018-06-10T20:16:22.105Z,20.50
2018-06-10T20:21:18.577Z,20.50
2018-06-10T20:23:47.012Z,20.50
2018-06-10T20:26:15.400Z,20.50
2018-06-10T20:28:43.822Z,20.40
2018-06-10T20:31:12.419Z,20.40
2018-06-10T20:33:40.821Z,20.50
2018-06-10T20:36:09.188Z,20.40
2018-06-10T20:38:37.539Z,20.40
2018-06-10T20:41:06.077Z,20.40
2018-06-10T20:43:34.493Z,20.40
2018-06-10T20:46:02.820Z,20.40
2018-06-10T20:48:31.294Z,20.30
2018-06-10T20:50:59.569Z,20.30
2018-06-10T20:53:27.930Z,20.40
2018-06-10T20:55:56.265Z,20.30
2018-06-10T20:58:24.620Z,20.20
2018-06-10T21:00:53.003Z,20.40
2018-06-10T21:03:21.372Z,20.30
2018-06-10T21:05:49.727Z,20.30
2018-06-10T21:08:18.121Z,20.30
2018-06-10T21:10:46.416Z,20.20
2018-06-10T21:13:14.780Z,20.20
2018-06-10T21:15:43.132Z,20.20
2018-06-10T21:18:11.738Z,20.20
2018-06-10T21:20:40.086Z,20.10
2018-06-10T21:23:08.446Z,20.10
2018-06-10T21:25:36.874Z,20.10
2018-06-10T21:28:05.238Z,20.00
2018-06-10T21:30:33.679Z,20.00
2018-06-10T21:33:02.032Z,19.90
2018-06-10T21:35:30.375Z,19.80
2018-06-10T21:37:58.754Z,19.70
2018-06-10T21:40:27.083Z,19.70
2018-06-10T21:42:55.450Z,19.60
2018-06-10T21:45:23.791Z,19.50
2018-06-10T21:47:52.172Z,19.50
2018-06-10T21:52:48.624Z,19.70
2018-06-10T21:55:17.046Z,19.60
2018-06-10T21:57:45.403Z,19.50
2018-06-10T22:00:25.013Z,19.50
2018-06-10T22:02:53.510Z,19.50
2018-06-10T22:05:22.149Z,19.60
2018-06-10T22:07:50.503Z,19.50
2018-06-10T22:10:19.779Z,19.50
2018-06-10T22:12:48.107Z,19.50
2018-06-10T22:15:16.436Z,19.50
2018-06-10T22:17:44.844Z,19.50
2018-06-10T22:20:13.224Z,19.50
2018-06-10T22:22:41.572Z,19.50
2018-06-10T22:25:09.904Z,19.50
2018-06-10T22:27:38.280Z,19.50
2018-06-10T22:30:06.632Z,19.50
2018-06-10T22:32:34.999Z,19.40
2018-06-10T22:35:03.304Z,19.40
2018-06-10T22:37:31.666Z,19.40
2018-06-10T22:40:00.001Z,19.40
2018-06-10T22:42:28.364Z,19.40
2018-06-10T22:44:56.707Z,19.40
2018-06-10T22:47:25.057Z,19.50
2018-06-10T22:49:53.418Z,19.50
2018-06-10T22:52:21.751Z,19.50
2018-06-10T22:54:50.093Z,19.50
2018-06-10T22:57:18.520Z,19.60
2018-06-10T22:59:46.868Z,19.60
2018-06-10T23:02:15.225Z,19.70
2018-06-10T23:04:43.560Z,19.50
2018-06-10T23:07:11.934Z,19.40
2018-06-10T23:09:40.243Z,19.30
2018-06-10T23:12:08.605Z,19.30
2018-06-10T23:14:36.973Z,19.30
2018-06-10T23:17:05.314Z,19.30
2018-06-10T23:19:33.662Z,19.20
2018-06-10T23:22:02.029Z,19.30
2018-06-10T23:24:30.383Z,19.40
2018-06-10T23:26:58.747Z,19.40
2018-06-10T23:29:27.143Z,19.40
2018-06-10T23:31:55.459Z,19.40
2018-06-10T23:34:24.517Z,19.50
2018-06-10T23:36:52.916Z,19.50
2018-06-10T23:39:21.254Z,19.50
2018-06-10T23:41:49.612Z,19.50
2018-06-10T23:44:17.953Z,19.50
2018-06-10T23:46:46.285Z,19.50
2018-06-10T23:49:15.263Z,19.60
2018-06-10T23:51:44.715Z,19.60
2018-06-10T23:54:13.181Z,19.70
2018-06-10T23:56:41.539Z,19.70
2018-06-10T23:59:09.889Z,19.60
